Time;durP1;ratioP1;P1;durP2;ratioP2;P2;SDS_P1;SDS_P2;PMS_P1;PMS_P2;Temp;Humidity;BMP_temperature;BMP_pressure;BME280_temperature;BME280_humidity;BME280_pressure;Samples;Min_cycle;Max_cycle;Signal;HPM_P1;HPM_P2
2022/01/10 00:00:52;;;;;;;13.80;7.23;;;;;;;-0.54;100.00;95523.56;5028417;28;20436;-86
2022/01/10 00:03:23;;;;;;;13.93;7.20;;;;;;;-0.52;100.00;95538.91;5021292;28;20467;-85
2022/01/10 00:05:50;;;;;;;12.60;8.40;;;;;;;-0.56;100.00;95535.72;5013305;28;20472;-86
2022/01/10 00:08:16;;;;;;;12.90;7.07;;;;;;;-0.51;100.00;95541.38;5038933;28;20467;-85
2022/01/10 00:10:43;;;;;;;13.03;7.47;;;;;;;-0.50;100.00;95547.41;5037816;28;20570;-86
2022/01/10 00:13:09;;;;;;;14.83;6.97;;;;;;;-0.53;100.00;95545.03;5015917;28;20037;-85
2022/01/10 00:15:35;;;;;;;11.60;7.20;;;;;;;-0.50;100.00;95547.41;5025845;28;20474;-85
2022/01/10 00:18:01;;;;;;;13.83;7.17;;;;;;;-0.46;100.00;95543.66;5036245;28;20471;-84
2022/01/10 00:20:28;;;;;;;13.37;7.13;;;;;;;-0.50;100.00;95549.97;5041064;28;20034;-85
2022/01/10 00:22:54;;;;;;;17.57;7.40;;;;;;;-0.54;100.00;95544.22;5034602;28;20479;-85
2022/01/10 00:25:22;;;;;;;15.57;7.73;;;;;;;-0.51;100.00;95556.06;5045378;28;20551;-85
2022/01/10 00:28:02;;;;;;;13.30;7.30;;;;;;;-0.48;100.00;95555.84;5037922;28;20025;-85
2022/01/10 00:30:28;;;;;;;14.17;6.73;;;;;;;-0.52;100.00;95551.84;5042969;28;20578;-86
2022/01/10 00:32:54;;;;;;;15.43;7.90;;;;;;;-0.55;100.00;95557.22;5007884;28;20578;-86
2022/01/10 00:35:20;;;;;;;17.13;7.80;;;;;;;-0.58;100.00;95554.84;5006445;28;20080;-86
2022/01/10 00:37:46;;;;;;;17.53;8.50;;;;;;;-0.58;100.00;95555.66;5046593;28;20140;-85
2022/01/10 00:40:14;;;;;;;13.63;7.87;;;;;;;-0.53;100.00;95555.34;5026549;28;20527;-85
2022/01/10 00:42:40;;;;;;;13.90;7.53;;;;;;;-0.56;100.00;95563.31;5063022;28;20017;-84
2022/01/10 00:45:35;;;;;;;15.30;7.40;;;;;;;-0.59;100.00;95566.94;5054594;28;20476;-85
2022/01/10 00:48:01;;;;;;;13.37;7.17;;;;;;;-0.58;100.00;95567.75;5026801;28;20464;-84
2022/01/10 00:50:28;;;;;;;12.67;7.27;;;;;;;-0.57;100.00;95571.97;5031734;28;20570;-85
2022/01/10 00:52:55;;;;;;;12.23;6.50;;;;;;;-0.52;100.00;95575.06;5022138;28;20028;-85
2022/01/10 00:55:21;;;;;;;14.23;7.27;;;;;;;-0.51;100.00;95579.31;5008889;28;21008;-84
2022/01/10 00:57:47;;;;;;;15.70;7.40;;;;;;;-0.53;100.00;95576.03;5036122;28;20605;-85
2022/01/10 01:00:16;;;;;;;15.53;7.13;;;;;;;-0.50;100.00;95575.81;5041790;28;20498;-85
2022/01/10 01:02:42;;;;;;;14.53;6.77;;;;;;;-0.50;100.00;95580.97;5032754;28;20487;-84
2022/01/10 01:05:11;;;;;;;16.60;7.73;;;;;;;-0.47;100.00;95588.47;5024220;28;21246;-85
2022/01/10 01:07:39;;;;;;;15.03;7.93;;;;;;;-0.48;100.00;95589.41;5014985;28;20033;-84
2022/01/10 01:13:24;;;;;;;11.83;7.37;;;;;;;-0.55;100.00;95603.69;5032947;28;20476;-84
2022/01/10 01:24:08;;;;;;;144.17;13.77;;;;;;;-0.68;100.00;95614.06;5022410;28;20470;-84
2022/01/10 01:26:48;;;;;;;103.27;12.63;;;;;;;-0.67;100.00;95623.47;5021887;28;20851;-85
2022/01/10 01:29:18;;;;;;;16.43;9.60;;;;;;;-0.64;100.00;95623.22;5038532;28;20483;-85
2022/01/10 01:31:45;;;;;;;12.07;8.17;;;;;;;-0.63;100.00;95624.91;5018740;28;20989;-85
2022/01/10 01:34:13;;;;;;;14.83;9.40;;;;;;;-0.58;100.00;95634.91;5025556;28;20916;-84
2022/01/10 01:36:39;;;;;;;18.27;9.20;;;;;;;-0.56;100.00;95633.88;5040895;28;20455;-84
2022/01/10 01:39:23;;;;;;;13.90;8.43;;;;;;;-0.54;100.00;95641.50;5026821;28;21005;-85
2022/01/10 01:42:02;;;;;;;16.07;9.50;;;;;;;-0.49;100.00;95647.19;5032417;28;20476;-84
2022/01/10 01:44:28;;;;;;;18.47;11.13;;;;;;;-0.47;100.00;95653.06;5021191;28;20514;-85
2022/01/10 01:46:54;;;;;;;18.43;11.43;;;;;;;-0.49;100.00;95650.59;5029897;28;20920;-84
2022/01/10 01:49:20;;;;;;;15.30;8.97;;;;;;;-0.48;100.00;95651.41;5037489;28;20483;-84
2022/01/10 01:51:46;;;;;;;17.67;10.00;;;;;;;-0.49;100.00;95653.16;5003122;28;20028;-85
2022/01/10 01:54:12;;;;;;;17.47;8.87;;;;;;;-0.49;100.00;95654.94;5047922;28;20071;-85
2022/01/10 01:56:39;;;;;;;16.07;8.93;;;;;;;-0.55;100.00;95661.34;5017147;28;20028;-85
2022/01/10 01:59:09;;;;;;;21.00;9.50;;;;;;;-0.50;100.00;95663.63;5029770;28;20452;-85
2022/01/10 02:01:35;;;;;;;18.23;9.43;;;;;;;-0.55;100.00;95656.16;5031669;28;20854;-85
2022/01/10 02:04:01;;;;;;;17.03;8.83;;;;;;;-0.53;100.00;95658.66;5033189;28;20467;-85
2022/01/10 02:06:29;;;;;;;14.20;9.27;;;;;;;-0.59;100.00;95661.66;5021478;28;20044;-85
2022/01/10 02:08:54;;;;;;;19.77;8.87;;;;;;;-0.59;100.00;95653.91;5037548;28;20986;-85
2022/01/10 02:11:20;;;;;;;16.53;8.63;;;;;;;-0.60;100.00;95658.25;5021795;28;20453;-85
2022/01/10 02:13:47;;;;;;;19.00;9.17;;;;;;;-0.61;100.00;95658.34;5037567;28;20468;-85
2022/01/10 02:16:44;;;;;;;16.03;9.27;;;;;;;-0.58;100.00;95668.47;5031159;28;20033;-85
2022/01/10 02:19:25;;;;;;;18.83;10.70;;;;;;;-0.58;100.00;95671.88;5037085;28;20484;-85
2022/01/10 02:21:51;;;;;;;16.77;10.27;;;;;;;-0.54;100.00;95680.25;5005605;28;20555;-85
2022/01/10 02:24:18;;;;;;;13.97;9.97;;;;;;;-0.55;100.00;95681.19;5028557;28;20467;-85
2022/01/10 02:26:49;;;;;;;16.90;9.63;;;;;;;-0.54;100.00;95688.00;5029390;28;20463;-85
2022/01/10 02:29:15;;;;;;;14.57;8.83;;;;;;;-0.49;100.00;95686.75;5031759;28;20476;-84
2022/01/10 02:31:41;;;;;;;14.13;8.80;;;;;;;-0.49;100.00;95685.94;5036045;28;21029;-85
2022/01/10 02:34:08;;;;;;;20.03;9.97;;;;;;;-0.46;100.00;95703.81;5029322;28;20454;-85
2022/01/10 02:36:34;;;;;;;18.67;10.37;;;;;;;-0.44;100.00;95699.34;5004573;28;20468;-85
2022/01/10 02:39:09;;;;;;;19.03;9.50;;;;;;;-0.46;100.00;95700.41;5020974;28;21067;-85
2022/01/10 02:41:37;;;;;;;15.27;9.60;;;;;;;-0.45;100.00;95691.72;5029478;28;20075;-85
2022/01/10 02:44:09;;;;;;;16.67;9.00;;;;;;;-0.47;100.00;95699.53;5012320;28;20464;-85
2022/01/10 02:46:37;;;;;;;17.60;9.80;;;;;;;-0.46;100.00;95708.97;5038330;28;20471;-85
2022/01/10 02:49:15;;;;;;;16.57;9.43;;;;;;;-0.50;100.00;95705.78;5038213;28;20092;-85
2022/01/10 02:51:43;;;;;;;17.53;9.37;;;;;;;-0.48;100.00;95701.31;5027117;28;20621;-84
2022/01/10 02:54:09;;;;;;;19.37;10.43;;;;;;;-0.47;100.00;95707.28;5048547;28;21015;-85
2022/01/10 02:56:45;;;;;;;14.57;9.53;;;;;;;-0.48;100.00;95718.56;5017603;28;20476;-85
2022/01/10 02:59:12;;;;;;;15.57;10.23;;;;;;;-0.49;100.00;95711.75;5010758;28;20471;-85
2022/01/10 03:01:37;;;;;;;16.47;9.87;;;;;;;-0.48;100.00;95721.16;5037923;28;20842;-85
2022/01/10 03:04:03;;;;;;;14.63;8.87;;;;;;;-0.46;100.00;95719.31;5022128;28;20090;-85
2022/01/10 03:06:29;;;;;;;17.57;10.13;;;;;;;-0.50;100.00;95720.44;5021143;28;20510;-85
2022/01/10 03:09:06;;;;;;;18.83;10.93;;;;;;;-0.53;100.00;95725.81;5015149;28;20124;-85
2022/01/10 03:11:37;;;;;;;19.90;10.80;;;;;;;-0.56;100.00;95715.69;5021913;28;20512;-85
2022/01/10 03:14:04;;;;;;;19.23;11.67;;;;;;;-0.55;100.00;95717.34;5033919;28;20552;-85
2022/01/10 03:16:30;;;;;;;19.70;12.60;;;;;;;-0.55;100.00;95712.16;5042641;28;20435;-85
2022/01/10 03:18:56;;;;;;;19.70;11.57;;;;;;;-0.58;100.00;95720.13;5013420;28;20466;-86
2022/01/10 03:21:22;;;;;;;17.03;10.63;;;;;;;-0.59;100.00;95728.81;5030974;28;20535;-85
2022/01/10 03:23:50;;;;;;;19.57;12.37;;;;;;;-0.53;100.00;95730.97;5032427;28;20057;-85
2022/01/10 03:26:18;;;;;;;20.33;12.20;;;;;;;-0.57;100.00;95739.84;5033249;28;20821;-85
2022/01/10 03:28:45;;;;;;;19.20;12.70;;;;;;;-0.55;100.00;95738.81;5026309;28;20464;-86
2022/01/10 03:31:11;;;;;;;20.73;11.67;;;;;;;-0.55;100.00;95740.56;5019572;28;20464;-86
2022/01/10 03:33:37;;;;;;;21.73;13.80;;;;;;;-0.59;100.00;95758.03;5018776;28;20041;-85
2022/01/10 03:36:09;;;;;;;21.07;12.93;;;;;;;-0.57;100.00;95768.25;5017977;28;20033;-86
2022/01/10 03:38:35;;;;;;;302.00;25.77;;;;;;;-0.72;100.00;95767.53;5018318;28;20490;-85
2022/01/10 03:41:01;;;;;;;214.40;20.30;;;;;;;-0.76;100.00;95772.06;5034137;28;20440;-85
2022/01/10 03:43:27;;;;;;;269.23;20.87;;;;;;;-0.74;100.00;95770.22;5026000;28;20153;-85
2022/01/10 03:45:53;;;;;;;261.23;21.93;;;;;;;-0.81;100.00;95766.38;5007146;28;20527;-85
2022/01/10 03:48:19;;;;;;;70.57;14.93;;;;;;;-0.74;100.00;95775.41;5035390;28;20033;-85
2022/01/10 03:50:45;;;;;;;82.47;13.93;;;;;;;-0.72;100.00;95783.84;5029025;28;20458;-85
2022/01/10 03:53:12;;;;;;;38.70;12.17;;;;;;;-0.67;100.00;95788.72;5047108;28;20463;-85
2022/01/10 03:55:40;;;;;;;27.77;11.77;;;;;;;-0.63;100.00;95792.75;5055980;28;20459;-85
2022/01/10 03:58:07;;;;;;;42.80;15.30;;;;;;;-0.61;100.00;95798.63;5010524;28;20475;-85
2022/01/10 04:00:33;;;;;;;19.70;12.97;;;;;;;-0.56;100.00;95803.50;5035735;28;20509;-85
2022/01/10 04:03:04;;;;;;;21.33;12.57;;;;;;;-0.55;100.00;95805.16;5026318;28;20027;-85
2022/01/10 04:05:38;;;;;;;17.77;11.37;;;;;;;-0.52;100.00;95815.28;5015811;28;21010;-85
2022/01/10 04:08:04;;;;;;;19.30;11.90;;;;;;;-0.49;100.00;95809.91;5004988;28;20468;-85
2022/01/10 04:10:30;;;;;;;19.87;11.70;;;;;;;-0.49;100.00;95818.47;5044565;28;20113;-85
2022/01/10 04:12:56;;;;;;;19.97;12.00;;;;;;;-0.48;100.00;95821.88;5037770;28;20535;-85
2022/01/10 04:15:22;;;;;;;22.20;12.20;;;;;;;-0.44;100.00;95823.31;5059395;28;20097;-85
2022/01/10 04:17:56;;;;;;;20.73;13.23;;;;;;;-0.43;100.00;95830.16;5076972;28;20471;-85
2022/01/10 04:20:23;;;;;;;21.40;12.90;;;;;;;-0.41;100.00;95833.47;4999815;28;21026;-86
2022/01/10 04:22:50;;;;;;;20.47;13.00;;;;;;;-0.37;100.00;95837.53;5044646;28;20456;-85
2022/01/10 04:25:25;;;;;;;19.93;11.70;;;;;;;-0.34;100.00;95839.88;5030116;28;20482;-86
2022/01/10 04:27:52;;;;;;;19.47;12.73;;;;;;;-0.33;100.00;95846.72;5017730;28;20034;-86
2022/01/10 04:30:26;;;;;;;17.77;12.57;;;;;;;-0.30;100.00;95848.28;5023810;28;21001;-86
2022/01/10 04:32:53;;;;;;;23.23;13.00;;;;;;;-0.48;100.00;95855.47;5013131;28;20550;-85
2022/01/10 04:35:29;;;;;;;21.20;13.97;;;;;;;-0.51;100.00;95848.75;5025564;28;20532;-85
2022/01/10 04:38:24;;;;;;;22.83;14.57;;;;;;;-0.45;100.00;95857.84;5029229;28;20095;-85
2022/01/10 04:40:51;;;;;;;23.23;13.83;;;;;;;-0.47;100.00;95851.94;4999587;28;20826;-85
2022/01/10 04:43:16;;;;;;;19.87;12.63;;;;;;;-0.38;100.00;95859.09;5037108;28;20468;-85
2022/01/10 04:45:42;;;;;;;25.50;14.37;;;;;;;-0.35;100.00;95866.66;5038768;28;20551;-85
2022/01/10 04:48:09;;;;;;;24.47;16.53;;;;;;;-0.34;100.00;95864.88;5039811;28;20025;-86
2022/01/10 04:53:06;;;;;;;23.63;15.27;;;;;;;-0.35;100.00;95884.72;5026334;28;20491;-85
2022/01/10 04:55:31;;;;;;;22.90;14.43;;;;;;;-0.30;100.00;95881.88;5041876;28;21179;-85
2022/01/10 04:58:25;;;;;;;26.60;14.13;;;;;;;-0.29;100.00;95886.91;5022089;28;20041;-85
2022/01/10 05:00:53;;;;;;;15.30;9.52;;;;;;;-0.29;100.00;95894.66;5035008;28;20041;-85
2022/01/10 05:03:20;;;;;;;22.17;11.93;;;;;;;-0.32;100.00;95894.03;5040656;28;20032;-85
2022/01/10 05:05:53;;;;;;;22.03;13.60;;;;;;;-0.35;100.00;95902.81;5021816;28;21207;-85
2022/01/10 05:08:21;;;;;;;20.23;13.13;;;;;;;-0.30;100.00;95903.34;5014695;28;20468;-86
2022/01/10 05:10:49;;;;;;;21.57;13.57;;;;;;;-0.41;100.00;95905.78;5020042;28;20479;-86
2022/01/10 05:13:15;;;;;;;23.80;13.43;;;;;;;-0.36;100.00;95913.25;5022696;28;20447;-85
2022/01/10 05:15:46;;;;;;;20.03;14.00;;;;;;;-0.30;100.00;95918.03;4997218;28;20861;-85
2022/01/10 05:18:14;;;;;;;25.90;14.47;;;;;;;-0.28;100.00;95913.56;5032303;28;21032;-86
2022/01/10 05:20:50;;;;;;;25.83;17.30;;;;;;;-0.30;100.00;95908.53;5021034;28;20984;-85
2022/01/10 05:23:16;;;;;;;27.63;14.80;;;;;;;-0.37;100.00;95904.69;5027809;28;20480;-85
2022/01/10 05:25:42;;;;;;;23.53;14.57;;;;;;;-0.35;100.00;95918.31;5027473;28;20033;-86
2022/01/10 05:28:12;;;;;;;25.20;14.77;;;;;;;-0.40;100.00;95922.97;5008066;28;20033;-86
2022/01/10 05:30:42;;;;;;;22.63;13.70;;;;;;;-0.41;100.00;95929.03;5024514;28;20479;-86
2022/01/10 05:33:09;;;;;;;19.30;13.00;;;;;;;-0.40;100.00;95930.72;5022828;28;20498;-85
2022/01/10 05:35:44;;;;;;;21.57;14.67;;;;;;;-0.40;100.00;95933.31;5013187;28;20474;-85
2022/01/10 05:38:11;;;;;;;21.43;14.13;;;;;;;-0.37;100.00;95938.28;5022205;28;20033;-85
2022/01/10 05:40:43;;;;;;;25.73;14.47;;;;;;;-0.35;100.00;95936.41;5020534;28;21038;-85
2022/01/10 05:43:09;;;;;;;23.33;14.53;;;;;;;-0.32;100.00;95950.88;5030393;28;20411;-86
2022/01/10 05:45:36;;;;;;;25.13;13.67;;;;;;;-0.41;100.00;95948.88;5029789;28;20483;-85
2022/01/10 05:48:12;;;;;;;19.83;12.37;;;;;;;-0.42;100.00;95944.66;5005626;28;20083;-86
2022/01/10 05:50:42;;;;;;;18.50;12.60;;;;;;;-0.39;100.00;95954.78;5037206;28;20033;-86
2022/01/10 05:53:12;;;;;;;19.50;12.97;;;;;;;-0.42;100.00;95955.81;5035403;28;20464;-87
2022/01/10 05:55:38;;;;;;;20.80;14.10;;;;;;;-0.39;100.00;95965.94;5003001;28;20558;-86
2022/01/10 05:58:07;;;;;;;20.37;13.33;;;;;;;-0.40;100.00;95978.94;5038172;28;20858;-86
2022/01/10 06:00:35;;;;;;;20.77;13.07;;;;;;;-0.42;100.00;95976.47;5027237;28;20491;-87
2022/01/10 06:03:01;;;;;;;20.37;12.87;;;;;;;-0.46;100.00;95974.19;5030733;28;20468;-86
2022/01/10 06:05:33;;;;;;;23.43;13.70;;;;;;;-0.45;100.00;95984.44;5016611;28;20496;-88
2022/01/10 06:08:05;;;;;;;19.70;14.37;;;;;;;-0.42;100.00;95986.00;5025113;28;20029;-88
2022/01/10 06:10:32;;;;;;;21.63;14.00;;;;;;;-0.38;100.00;95983.09;5015080;28;20475;-87
2022/01/10 06:13:07;;;;;;;28.13;18.37;;;;;;;-0.43;100.00;95992.91;5022510;28;20439;-88
2022/01/10 06:15:33;;;;;;;26.20;15.73;;;;;;;-0.44;100.00;95993.00;5013257;28;20031;-87
2022/01/10 06:17:59;;;;;;;29.73;19.67;;;;;;;-0.49;100.00;95995.88;5005525;28;20524;-87
2022/01/10 06:20:25;;;;;;;24.57;16.47;;;;;;;-0.49;100.00;95998.47;5016057;28;20048;-88
2022/01/10 06:22:55;;;;;;;24.37;14.93;;;;;;;-0.45;100.00;96012.84;5030614;28;20037;-88
2022/01/10 06:25:25;;;;;;;31.33;16.97;;;;;;;-0.47;100.00;96017.25;5013265;28;20472;-87
2022/01/10 06:27:51;;;;;;;21.90;13.97;;;;;;;-0.48;100.00;96019.03;5021418;28;20523;-87
2022/01/10 06:30:17;;;;;;;25.87;16.70;;;;;;;-0.49;100.00;96019.97;4993565;28;20468;-87
2022/01/10 06:32:46;;;;;;;28.87;17.80;;;;;;;-0.45;100.00;96025.75;5028953;28;20546;-87
2022/01/10 06:35:14;;;;;;;25.37;17.33;;;;;;;-0.46;100.00;96026.69;5014299;28;20456;-87
2022/01/10 06:37:49;;;;;;;35.63;20.40;;;;;;;-0.53;100.00;96030.59;5013449;28;20455;-88
2022/01/10 06:40:16;;;;;;;43.73;25.37;;;;;;;-0.50;100.00;96040.72;5010818;28;20546;-87
2022/01/10 06:42:45;;;;;;;38.27;22.83;;;;;;;-0.49;100.00;96047.53;5017757;28;20468;-87
2022/01/10 06:45:12;;;;;;;43.33;24.37;;;;;;;-0.59;100.00;96049.88;5046684;28;20451;-88
2022/01/10 06:47:39;;;;;;;36.90;22.57;;;;;;;-0.56;100.00;96057.44;5018849;28;20045;-88
2022/01/10 06:50:07;;;;;;;34.70;18.93;;;;;;;-0.47;100.00;96068.94;5009726;28;20478;-88
2022/01/10 06:52:38;;;;;;;31.00;19.17;;;;;;;-0.43;100.00;96073.00;5014235;28;21330;-88
2022/01/10 06:55:04;;;;;;;26.90;15.60;;;;;;;-0.44;100.00;96067.91;5039052;28;20475;-88
2022/01/10 06:57:30;;;;;;;28.03;17.87;;;;;;;-0.46;100.00;96069.78;5034286;28;20033;-88
2022/01/10 06:59:58;;;;;;;28.20;18.07;;;;;;;-0.48;100.00;96082.78;5035846;28;20981;-87
2022/01/10 07:02:24;;;;;;;29.70;16.83;;;;;;;-0.47;100.00;96081.84;5022541;28;20459;-87
2022/01/10 07:04:52;;;;;;;29.70;14.43;;;;;;;-0.47;100.00;96087.00;5001261;28;20464;-88
2022/01/10 07:07:23;;;;;;;26.13;13.97;;;;;;;-0.37;100.00;96088.13;4997026;28;20483;-88
2022/01/10 07:09:54;;;;;;;28.67;15.23;;;;;;;-0.51;100.00;96101.03;5040900;28;20597;-81
2022/01/10 07:12:50;;;;;;;28.73;16.33;;;;;;;-0.52;100.00;96104.56;5030698;28;20479;-81
2022/01/10 07:15:16;;;;;;;31.40;13.73;;;;;;;-0.54;100.00;96116.72;5037726;28;20056;-81
2022/01/10 07:17:42;;;;;;;26.23;12.97;;;;;;;-0.46;100.00;96124.84;5026762;28;20997;-81
2022/01/10 07:20:11;;;;;;;30.83;12.80;;;;;;;-0.49;100.00;96128.44;5030341;28;20462;-81
2022/01/10 07:22:39;;;;;;;25.20;12.80;;;;;;;-0.53;100.00;96133.91;5015074;28;20467;-82
2022/01/10 07:25:06;;;;;;;42.97;23.40;;;;;;;-0.46;100.00;96142.13;5016177;28;20447;-87
2022/01/10 07:27:34;;;;;;;49.10;24.90;;;;;;;-0.53;100.00;96152.00;5040064;28;20476;-88
2022/01/10 07:30:15;;;;;;;32.23;15.40;;;;;;;-0.44;100.00;96153.16;5005742;28;20495;-88
2022/01/10 07:32:40;;;;;;;41.50;15.90;;;;;;;-0.54;100.00;96152.88;5032113;28;20471;-88
2022/01/10 07:35:10;;;;;;;33.20;13.27;;;;;;;-0.54;100.00;96160.63;5028756;28;20464;-88
2022/01/10 07:37:36;;;;;;;26.53;13.03;;;;;;;-0.57;100.00;96164.25;5006459;28;20021;-88
2022/01/10 07:40:03;;;;;;;35.50;15.90;;;;;;;-0.53;100.00;96164.91;5032277;28;20456;-87
2022/01/10 07:42:29;;;;;;;32.50;15.87;;;;;;;-0.51;100.00;96173.38;5019840;28;20408;-88
2022/01/10 07:45:10;;;;;;;51.67;14.83;;;;;;;-0.55;100.00;96192.56;5042637;28;20448;-88
2022/01/10 07:47:37;;;;;;;31.13;14.33;;;;;;;-0.46;100.00;96189.44;5006463;28;20468;-88
2022/01/10 07:50:07;;;;;;;37.27;15.13;;;;;;;-0.49;100.00;96200.78;5000646;28;20479;-89
2022/01/10 07:52:33;;;;;;;35.23;14.63;;;;;;;-0.50;100.00;96196.53;5021414;28;20471;-89
2022/01/10 07:54:58;;;;;;;35.27;14.57;;;;;;;-0.47;100.00;96195.50;5018923;28;20481;-89
2022/01/10 07:57:28;;;;;;;33.37;14.73;;;;;;;-0.46;100.00;96202.34;5050699;28;20547;-89
2022/01/10 07:59:54;;;;;;;82.50;16.40;;;;;;;-0.48;100.00;96205.00;5037477;28;20525;-89
2022/01/10 08:02:21;;;;;;;33.63;15.63;;;;;;;-0.49;100.00;96213.69;5035651;28;20472;-89
2022/01/10 08:04:48;;;;;;;40.27;14.13;;;;;;;-0.48;100.00;96215.34;5011008;28;20536;-89
2022/01/10 08:07:17;;;;;;;30.50;15.17;;;;;;;-0.43;100.00;96220.25;5015205;28;20578;-89
2022/01/10 08:09:43;;;;;;;43.93;15.23;;;;;;;-0.48;100.00;96223.09;5034754;28;20464;-89
2022/01/10 08:12:09;;;;;;;31.80;14.07;;;;;;;-0.48;100.00;96227.44;5024744;28;20464;-89
2022/01/10 08:14:35;;;;;;;32.67;13.60;;;;;;;-0.46;100.00;96238.53;5001946;28;20525;-89
2022/01/10 08:17:01;;;;;;;32.93;14.40;;;;;;;-0.51;100.00;96235.38;5025155;28;21309;-89
2022/01/10 08:19:30;;;;;;;23.43;12.60;;;;;;;-0.43;100.00;96242.69;5024359;28;20120;-88
2022/01/10 08:21:56;;;;;;;25.93;13.10;;;;;;;-0.41;100.00;96244.22;5022370;28;20029;-89
2022/01/10 08:24:23;;;;;;;26.50;13.30;;;;;;;-0.39;100.00;96241.56;5047720;28;20459;-89
2022/01/10 08:26:50;;;;;;;22.47;11.70;;;;;;;-0.47;100.00;96247.16;5033900;28;20456;-90
2022/01/10 08:29:16;;;;;;;22.57;12.50;;;;;;;-0.44;100.00;96259.91;5058662;28;20463;-90
2022/01/10 08:32:00;;;;;;;21.30;11.90;;;;;;;-0.30;100.00;96259.94;5024628;28;20460;-89
2022/01/10 08:34:26;;;;;;;23.90;12.27;;;;;;;-0.30;100.00;96262.53;5046904;28;20033;-90
2022/01/10 08:36:56;;;;;;;19.00;11.33;;;;;;;-0.29;100.00;96268.50;5000069;28;20996;-88
2022/01/10 08:39:22;;;;;;;19.37;11.00;;;;;;;-0.26;100.00;96269.16;5017913;28;20055;-89
2022/01/10 08:42:19;;;;;;;23.53;12.90;;;;;;;-0.12;100.00;96276.06;5010124;28;20523;-89
2022/01/10 08:44:45;;;;;;;25.10;14.27;;;;;;;-0.21;100.00;96280.97;5042246;28;20170;-89
2022/01/10 08:47:11;;;;;;;140.93;68.90;;;;;;;-0.18;100.00;96286.78;5031102;28;20479;-89
2022/01/10 08:49:37;;;;;;;55.73;30.57;;;;;;;-0.08;100.00;96289.66;5044896;28;20468;-89
2022/01/10 08:52:03;;;;;;;60.50;30.47;;;;;;;-0.03;100.00;96292.81;5019977;28;20032;-88
2022/01/10 08:54:30;;;;;;;31.43;16.97;;;;;;;0.04;100.00;96285.50;5028193;28;20029;-89
2022/01/10 08:57:01;;;;;;;24.17;13.17;;;;;;;0.00;100.00;96295.19;5017262;28;20636;-88
2022/01/10 08:59:28;;;;;;;22.20;11.93;;;;;;;0.00;100.00;96300.38;5003748;28;20472;-89
2022/01/10 09:02:31;;;;;;;20.70;11.40;;;;;;;0.00;100.00;96302.97;5020495;28;20033;-88
2022/01/10 09:04:57;;;;;;;23.13;12.57;;;;;;;0.05;100.00;96310.44;5012804;28;20578;-87
2022/01/10 09:07:22;;;;;;;28.63;13.50;;;;;;;0.18;100.00;96312.16;5016409;28;20471;-88
2022/01/10 09:09:50;;;;;;;26.17;13.67;;;;;;;0.02;100.00;96313.19;5015549;28;20029;-88
2022/01/10 09:12:18;;;;;;;28.50;13.53;;;;;;;0.11;100.00;96328.16;5024270;28;20468;-88
2022/01/10 09:14:44;;;;;;;26.33;14.93;;;;;;;0.24;100.00;96313.56;5037745;28;20056;-88
2022/01/10 09:18:02;;;;;;;26.33;14.40;;;;;;;0.15;100.00;96327.03;5017437;28;20467;-88
2022/01/10 09:20:29;;;;;;;23.10;14.00;;;;;;;0.28;100.00;96327.97;5000561;28;20040;-88
2022/01/10 09:22:54;;;;;;;33.27;20.10;;;;;;;0.25;100.00;96330.72;5023414;28;20025;-88
2022/01/10 09:25:20;;;;;;;31.37;17.40;;;;;;;0.35;100.00;96337.00;5019474;28;20087;-88
2022/01/10 09:27:46;;;;;;;43.43;20.00;;;;;;;0.17;100.00;96349.31;5020016;28;20124;-88
2022/01/10 09:30:12;;;;;;;32.23;15.73;;;;;;;0.03;100.00;96349.28;5042332;28;20111;-87
2022/01/10 09:32:39;;;;;;;27.60;15.20;;;;;;;0.20;100.00;96348.25;5022440;28;20033;-88
2022/01/10 09:35:05;;;;;;;27.33;15.23;;;;;;;0.14;100.00;96357.25;5039868;28;20788;-87
2022/01/10 09:37:31;;;;;;;30.20;15.83;;;;;;;0.07;100.00;96357.69;5029971;28;20515;-88
2022/01/10 09:39:59;;;;;;;28.17;14.87;;;;;;;0.12;100.00;96359.06;5014588;28;20029;-87
2022/01/10 09:42:25;;;;;;;37.13;20.80;;;;;;;0.25;100.00;96363.53;5031601;28;20037;-88
2022/01/10 09:44:51;;;;;;;28.40;14.77;;;;;;;0.33;100.00;96369.88;5029594;28;20460;-88
2022/01/10 09:47:17;;;;;;;31.70;15.07;;;;;;;0.35;100.00;96364.63;5013796;28;20460;-88
2022/01/10 09:49:43;;;;;;;29.73;16.17;;;;;;;0.20;100.00;96369.81;5030231;28;20018;-89
2022/01/10 09:52:10;;;;;;;26.97;14.63;;;;;;;0.08;100.00;96380.88;5039901;28;20037;-88
2022/01/10 09:54:35;;;;;;;47.23;22.43;;;;;;;0.10;100.00;96386.81;5025734;28;20029;-88
2022/01/10 09:57:01;;;;;;;57.27;27.87;;;;;;;0.05;100.00;96386.22;5041283;28;20501;-88
2022/01/10 09:59:30;;;;;;;33.80;16.70;;;;;;;0.16;100.00;96386.41;5049814;28;20568;-88
2022/01/10 10:01:56;;;;;;;36.97;18.30;;;;;;;0.16;100.00;96391.59;5043857;28;20037;-87
2022/01/10 10:04:22;;;;;;;46.13;21.70;;;;;;;0.28;100.00;96396.97;5020840;28;20512;-87
2022/01/10 10:06:48;;;;;;;69.80;31.87;;;;;;;0.25;100.00;96395.38;5009943;28;20018;-88
2022/01/10 10:09:14;;;;;;;55.30;26.50;;;;;;;0.21;100.00;96397.31;5027511;28;20068;-88
2022/01/10 10:11:44;;;;;;;52.83;24.43;;;;;;;0.18;100.00;96407.84;5025081;28;20028;-87
2022/01/10 10:14:14;;;;;;;36.93;18.33;;;;;;;0.40;100.00;96404.81;5037981;28;20395;-88
2022/01/10 10:16:47;;;;;;;39.93;20.03;;;;;;;0.43;100.00;96406.38;5012505;28;20030;-88
2022/01/10 10:19:13;;;;;;;;;;;;;;;0.37;100.00;96411.91;5036811;28;20036;-89
2022/01/10 10:21:39;;;;;;;30.17;16.70;;;;;;;0.34;100.00;96415.53;5033344;28;19913;-89
2022/01/10 10:24:05;;;;;;;29.90;15.77;;;;;;;0.34;100.00;96418.13;5019302;28;20071;-89
2022/01/10 10:26:32;;;;;;;28.80;15.87;;;;;;;0.44;100.00;96427.00;5015130;28;20020;-90
2022/01/10 10:28:58;;;;;;;33.23;16.53;;;;;;;0.58;100.00;96425.31;5013796;28;20045;-90
2022/01/10 10:31:28;;;;;;;29.50;15.47;;;;;;;0.62;100.00;96432.81;5012014;28;20472;-90
2022/01/10 10:33:57;;;;;;;32.53;16.57;;;;;;;0.82;100.00;96436.75;5035126;28;20090;-85
2022/01/10 10:36:30;;;;;;;39.00;17.73;;;;;;;0.87;100.00;96436.47;5011114;28;20057;-86
2022/01/10 10:38:58;;;;;;;36.10;19.13;;;;;;;0.83;100.00;96437.59;5028887;28;20714;-87
2022/01/10 10:41:33;;;;;;;41.70;23.80;;;;;;;0.64;100.00;96436.13;5026554;28;20037;-85
2022/01/10 10:44:06;;;;;;;31.00;16.47;;;;;;;0.74;100.00;96440.72;5029058;28;20120;-85
2022/01/10 10:46:32;;;;;;;31.38;17.25;;;;;;;0.72;100.00;96440.84;5031933;28;20033;-85
2022/01/10 10:52:45;;;;;;;40.03;21.10;;;;;;;0.84;100.00;96452.19;5038581;28;20033;-85
2022/01/10 10:55:13;;;;;;;45.70;25.10;;;;;;;0.77;100.00;96448.31;4996013;28;20034;-85
2022/01/10 10:57:40;;;;;;;36.53;18.63;;;;;;;0.93;100.00;96447.28;5028705;28;20056;-85
2022/01/10 11:00:12;;;;;;;30.60;18.73;;;;;;;0.99;100.00;96455.59;5009915;28;20033;-85
2022/01/10 11:02:38;;;;;;;32.43;19.40;;;;;;;0.98;100.00;96461.72;5014199;28;20033;-84
2022/01/10 11:05:06;;;;;;;32.23;16.53;;;;;;;0.92;100.00;96463.75;5029129;28;20072;-84
2022/01/10 11:07:34;;;;;;;35.00;18.20;;;;;;;0.88;100.00;96466.63;5023911;28;20039;-85
2022/01/10 11:10:03;;;;;;;29.97;16.80;;;;;;;0.91;100.00;96469.03;5018244;28;20480;-85
2022/01/10 11:12:30;;;;;;;28.87;16.77;;;;;;;0.98;100.00;96467.72;4993193;28;20095;-85
2022/01/10 11:14:59;;;;;;;35.77;18.87;;;;;;;0.91;100.00;96476.81;5038473;28;20091;-85
2022/01/10 11:17:26;;;;;;;29.73;14.80;;;;;;;0.84;100.00;96478.06;5030335;28;20069;-85
2022/01/10 11:20:12;;;;;;;36.97;19.93;;;;;;;1.14;100.00;96483.97;5030018;28;20037;-85
2022/01/10 11:22:44;;;;;;;35.77;18.27;;;;;;;1.23;100.00;96476.56;5031392;28;20052;-86
2022/01/10 11:25:40;;;;;;;28.67;15.30;;;;;;;1.23;100.00;96481.72;5066258;28;20047;-86
2022/01/10 11:28:09;;;;;;;30.00;17.70;;;;;;;1.23;100.00;96484.31;5046970;28;20029;-85
2022/01/10 11:30:36;;;;;;;33.70;16.83;;;;;;;1.15;100.00;96490.00;5026790;28;20105;-86
2022/01/10 11:33:13;;;;;;;61.97;26.57;;;;;;;1.08;100.00;96499.91;5024780;28;20120;-85
2022/01/10 11:35:52;;;;;;;43.10;23.40;;;;;;;1.22;100.00;96500.81;5013674;28;20516;-85
2022/01/10 11:38:33;;;;;;;34.70;17.63;;;;;;;1.13;100.00;96497.84;5026715;28;20404;-84